sensor_id;sensor_type;location;lat;lon;timestamp;P1;durP1;ratioP1;P2;durP2;ratioP2
70138;SDS011;57507;43.056;0.150;2022-12-18T00:01:21;0.38;;;0.28;;
70138;SDS011;57507;43.056;0.150;2022-12-18T00:03:48;0.30;;;0.22;;
70138;SDS011;57507;43.056;0.150;2022-12-18T00:06:15;0.40;;;0.30;;
70138;SDS011;57507;43.056;0.150;2022-12-18T00:08:42;0.35;;;0.30;;
70138;SDS011;57507;43.056;0.150;2022-12-18T00:11:13;0.55;;;0.40;;
70138;SDS011;57507;43.056;0.150;2022-12-18T00:13:39;0.40;;;0.30;;
70138;SDS011;57507;43.056;0.150;2022-12-18T00:16:07;0.38;;;0.38;;
70138;SDS011;57507;43.056;0.150;2022-12-18T00:18:35;0.32;;;0.32;;
70138;SDS011;57507;43.056;0.150;2022-12-18T00:21:02;0.43;;;0.32;;
70138;SDS011;57507;43.056;0.150;2022-12-18T00:23:29;0.55;;;0.35;;
70138;SDS011;57507;43.056;0.150;2022-12-18T00:25:59;0.35;;;0.28;;
70138;SDS011;57507;43.056;0.150;2022-12-18T00:28:26;0.52;;;0.50;;
70138;SDS011;57507;43.056;0.150;2022-12-18T00:31:00;0.52;;;0.40;;
70138;SDS011;57507;43.056;0.150;2022-12-18T00:33:27;0.60;;;0.60;;
70138;SDS011;57507;43.056;0.150;2022-12-18T00:35:53;1.17;;;0.60;;
70138;SDS011;57507;43.056;0.150;2022-12-18T00:38:20;0.40;;;0.40;;
70138;SDS011;57507;43.056;0.150;2022-12-18T00:40:46;0.30;;;0.30;;
70138;SDS011;57507;43.056;0.150;2022-12-18T00:43:13;0.30;;;0.30;;
70138;SDS011;57507;43.056;0.150;2022-12-18T00:45:40;0.50;;;0.50;;
70138;SDS011;57507;43.056;0.150;2022-12-18T00:48:06;0.63;;;0.30;;
70138;SDS011;57507;43.056;0.150;2022-12-18T00:50:33;2.05;;;0.40;;
70138;SDS011;57507;43.056;0.150;2022-12-18T00:52:59;0.45;;;0.30;;
70138;SDS011;57507;43.056;0.150;2022-12-18T00:55:26;0.30;;;0.30;;
70138;SDS011;57507;43.056;0.150;2022-12-18T00:57:52;0.30;;;0.30;;
70138;SDS011;57507;43.056;0.150;2022-12-18T01:00:19;0.40;;;0.40;;
70138;SDS011;57507;43.056;0.150;2022-12-18T01:02:46;0.30;;;0.30;;
70138;SDS011;57507;43.056;0.150;2022-12-18T01:05:14;0.50;;;0.40;;
70138;SDS011;57507;43.056;0.150;2022-12-18T01:07:40;0.45;;;0.40;;
70138;SDS011;57507;43.056;0.150;2022-12-18T01:10:08;0.40;;;0.40;;
70138;SDS011;57507;43.056;0.150;2022-12-18T01:12:36;0.73;;;0.32;;
70138;SDS011;57507;43.056;0.150;2022-12-18T01:15:03;0.32;;;0.30;;
70138;SDS011;57507;43.056;0.150;2022-12-18T01:17:30;0.70;;;0.28;;
70138;SDS011;57507;43.056;0.150;2022-12-18T01:19:57;0.40;;;0.40;;
70138;SDS011;57507;43.056;0.150;2022-12-18T01:22:23;1.00;;;0.50;;
70138;SDS011;57507;43.056;0.150;2022-12-18T01:24:50;0.20;;;0.20;;
70138;SDS011;57507;43.056;0.150;2022-12-18T01:27:16;1.10;;;0.30;;
70138;SDS011;57507;43.056;0.150;2022-12-18T01:29:43;0.40;;;0.30;;
70138;SDS011;57507;43.056;0.150;2022-12-18T01:32:10;0.50;;;0.30;;
70138;SDS011;57507;43.056;0.150;2022-12-18T01:34:37;0.28;;;0.22;;
70138;SDS011;57507;43.056;0.150;2022-12-18T01:37:04;0.30;;;0.30;;
70138;SDS011;57507;43.056;0.150;2022-12-18T01:39:31;0.40;;;0.38;;
70138;SDS011;57507;43.056;0.150;2022-12-18T01:42:02;0.20;;;0.20;;
70138;SDS011;57507;43.056;0.150;2022-12-18T01:47:18;0.20;;;0.20;;
70138;SDS011;57507;43.056;0.150;2022-12-18T01:49:46;1.10;;;0.32;;
70138;SDS011;57507;43.056;0.150;2022-12-18T01:52:14;0.20;;;0.20;;
70138;SDS011;57507;43.056;0.150;2022-12-18T01:54:41;0.40;;;0.30;;
70138;SDS011;57507;43.056;0.150;2022-12-18T01:57:08;0.20;;;0.20;;
70138;SDS011;57507;43.056;0.150;2022-12-18T01:59:35;0.50;;;0.28;;
70138;SDS011;57507;43.056;0.150;2022-12-18T02:02:02;0.20;;;0.20;;
70138;SDS011;57507;43.056;0.150;2022-12-18T02:04:29;0.38;;;0.20;;
70138;SDS011;57507;43.056;0.150;2022-12-18T02:09:40;0.20;;;0.20;;
70138;SDS011;57507;43.056;0.150;2022-12-18T02:12:13;0.17;;;0.17;;
70138;SDS011;57507;43.056;0.150;2022-12-18T02:22:29;0.28;;;0.20;;
70138;SDS011;57507;43.056;0.150;2022-12-18T02:27:40;0.20;;;0.20;;
70138;SDS011;57507;43.056;0.150;2022-12-18T02:30:07;0.32;;;0.30;;
70138;SDS011;57507;43.056;0.150;2022-12-18T02:32:35;0.20;;;0.20;;
70138;SDS011;57507;43.056;0.150;2022-12-18T02:35:05;0.30;;;0.20;;
70138;SDS011;57507;43.056;0.150;2022-12-18T02:37:32;0.32;;;0.20;;
70138;SDS011;57507;43.056;0.150;2022-12-18T02:40:00;0.17;;;0.17;;
70138;SDS011;57507;43.056;0.150;2022-12-18T02:42:28;0.30;;;0.20;;
70138;SDS011;57507;43.056;0.150;2022-12-18T02:44:55;0.85;;;0.20;;
70138;SDS011;57507;43.056;0.150;2022-12-18T02:47:22;0.20;;;0.20;;
70138;SDS011;57507;43.056;0.150;2022-12-18T03:00:06;0.20;;;0.20;;
70138;SDS011;57507;43.056;0.150;2022-12-18T03:02:45;0.38;;;0.22;;
70138;SDS011;57507;43.056;0.150;2022-12-18T03:05:36;1.17;;;0.15;;
70138;SDS011;57507;43.056;0.150;2022-12-18T03:10:29;0.20;;;0.20;;
70138;SDS011;57507;43.056;0.150;2022-12-18T03:13:00;0.30;;;0.30;;
70138;SDS011;57507;43.056;0.150;2022-12-18T03:15:30;0.52;;;0.20;;
70138;SDS011;57507;43.056;0.150;2022-12-18T03:18:05;0.30;;;0.20;;
70138;SDS011;57507;43.056;0.150;2022-12-18T03:20:34;0.20;;;0.20;;
70138;SDS011;57507;43.056;0.150;2022-12-18T03:23:07;0.20;;;0.10;;
70138;SDS011;57507;43.056;0.150;2022-12-18T03:25:35;0.28;;;0.20;;
70138;SDS011;57507;43.056;0.150;2022-12-18T03:28:03;0.38;;;0.30;;
70138;SDS011;57507;43.056;0.150;2022-12-18T03:30:33;0.20;;;0.20;;
70138;SDS011;57507;43.056;0.150;2022-12-18T03:33:10;0.30;;;0.30;;
70138;SDS011;57507;43.056;0.150;2022-12-18T03:35:39;0.52;;;0.13;;
70138;SDS011;57507;43.056;0.150;2022-12-18T03:38:06;0.20;;;0.10;;
70138;SDS011;57507;43.056;0.150;2022-12-18T03:40:35;0.10;;;0.10;;
70138;SDS011;57507;43.056;0.150;2022-12-18T03:43:20;0.30;;;0.20;;
70138;SDS011;57507;43.056;0.150;2022-12-18T03:45:53;0.20;;;0.20;;
70138;SDS011;57507;43.056;0.150;2022-12-18T03:48:28;1.80;;;0.20;;
70138;SDS011;57507;43.056;0.150;2022-12-18T03:51:02;0.20;;;0.20;;
70138;SDS011;57507;43.056;0.150;2022-12-18T03:56:15;0.35;;;0.22;;
70138;SDS011;57507;43.056;0.150;2022-12-18T03:58:43;0.10;;;0.10;;
70138;SDS011;57507;43.056;0.150;2022-12-18T04:01:11;1.27;;;0.47;;
70138;SDS011;57507;43.056;0.150;2022-12-18T04:03:38;0.20;;;0.20;;
70138;SDS011;57507;43.056;0.150;2022-12-18T04:06:05;0.20;;;0.20;;
70138;SDS011;57507;43.056;0.150;2022-12-18T04:08:32;0.68;;;0.25;;
70138;SDS011;57507;43.056;0.150;2022-12-18T04:11:00;0.32;;;0.30;;
70138;SDS011;57507;43.056;0.150;2022-12-18T04:13:28;0.20;;;0.20;;
70138;SDS011;57507;43.056;0.150;2022-12-18T04:15:55;0.20;;;0.20;;
70138;SDS011;57507;43.056;0.150;2022-12-18T04:18:21;0.45;;;0.30;;
70138;SDS011;57507;43.056;0.150;2022-12-18T04:20:48;0.35;;;0.30;;
70138;SDS011;57507;43.056;0.150;2022-12-18T04:23:15;0.30;;;0.30;;
70138;SDS011;57507;43.056;0.150;2022-12-18T04:25:41;0.30;;;0.30;;
70138;SDS011;57507;43.056;0.150;2022-12-18T04:28:08;0.85;;;0.20;;
70138;SDS011;57507;43.056;0.150;2022-12-18T04:30:34;0.30;;;0.30;;
70138;SDS011;57507;43.056;0.150;2022-12-18T04:33:01;0.45;;;0.30;;
70138;SDS011;57507;43.056;0.150;2022-12-18T04:35:28;0.30;;;0.28;;
70138;SDS011;57507;43.056;0.150;2022-12-18T04:37:55;0.20;;;0.20;;
70138;SDS011;57507;43.056;0.150;2022-12-18T04:40:22;0.20;;;0.20;;
70138;SDS011;57507;43.056;0.150;2022-12-18T04:42:48;0.32;;;0.20;;
70138;SDS011;57507;43.056;0.150;2022-12-18T04:45:15;0.20;;;0.20;;
70138;SDS011;57507;43.056;0.150;2022-12-18T04:47:42;0.35;;;0.30;;
70138;SDS011;57507;43.056;0.150;2022-12-18T04:50:09;0.25;;;0.25;;
70138;SDS011;57507;43.056;0.150;2022-12-18T04:52:35;0.30;;;0.20;;
70138;SDS011;57507;43.056;0.150;2022-12-18T04:55:02;0.13;;;0.13;;
70138;SDS011;57507;43.056;0.150;2022-12-18T04:57:28;0.43;;;0.20;;
70138;SDS011;57507;43.056;0.150;2022-12-18T04:59:55;1.92;;;0.20;;
70138;SDS011;57507;43.056;0.150;2022-12-18T05:02:22;0.25;;;0.25;;
70138;SDS011;57507;43.056;0.150;2022-12-18T05:04:48;0.30;;;0.20;;
70138;SDS011;57507;43.056;0.150;2022-12-18T05:07:15;0.43;;;0.30;;
70138;SDS011;57507;43.056;0.150;2022-12-18T05:09:41;1.45;;;0.20;;
70138;SDS011;57507;43.056;0.150;2022-12-18T05:12:08;0.20;;;0.20;;
70138;SDS011;57507;43.056;0.150;2022-12-18T05:14:35;0.20;;;0.20;;
70138;SDS011;57507;43.056;0.150;2022-12-18T05:17:02;0.13;;;0.13;;
70138;SDS011;57507;43.056;0.150;2022-12-18T05:19:29;0.15;;;0.15;;
70138;SDS011;57507;43.056;0.150;2022-12-18T05:21:55;0.25;;;0.25;;
70138;SDS011;57507;43.056;0.150;2022-12-18T05:24:22;0.20;;;0.20;;
70138;SDS011;57507;43.056;0.150;2022-12-18T05:26:49;0.20;;;0.20;;
70138;SDS011;57507;43.056;0.150;2022-12-18T05:29:16;0.10;;;0.10;;
70138;SDS011;57507;43.056;0.150;2022-12-18T05:31:43;0.13;;;0.13;;
70138;SDS011;57507;43.056;0.150;2022-12-18T05:34:10;0.20;;;0.20;;
70138;SDS011;57507;43.056;0.150;2022-12-18T05:36:36;0.52;;;0.20;;
70138;SDS011;57507;43.056;0.150;2022-12-18T05:39:03;0.30;;;0.20;;
70138;SDS011;57507;43.056;0.150;2022-12-18T05:41:30;0.52;;;0.20;;
70138;SDS011;57507;43.056;0.150;2022-12-18T05:43:56;0.10;;;0.10;;
70138;SDS011;57507;43.056;0.150;2022-12-18T05:46:24;0.20;;;0.20;;
70138;SDS011;57507;43.056;0.150;2022-12-18T05:48:51;0.30;;;0.30;;
70138;SDS011;57507;43.056;0.150;2022-12-18T05:51:19;0.20;;;0.20;;
70138;SDS011;57507;43.056;0.150;2022-12-18T05:53:46;0.20;;;0.20;;
70138;SDS011;57507;43.056;0.150;2022-12-18T05:56:14;0.30;;;0.25;;
70138;SDS011;57507;43.056;0.150;2022-12-18T05:58:41;0.25;;;0.25;;
70138;SDS011;57507;43.056;0.150;2022-12-18T06:01:17;0.10;;;0.10;;
70138;SDS011;57507;43.056;0.150;2022-12-18T06:03:45;0.22;;;0.20;;
70138;SDS011;57507;43.056;0.150;2022-12-18T06:08:41;0.43;;;0.30;;
70138;SDS011;57507;43.056;0.150;2022-12-18T06:11:08;0.30;;;0.30;;
70138;SDS011;57507;43.056;0.150;2022-12-18T06:13:35;0.40;;;0.30;;
70138;SDS011;57507;43.056;0.150;2022-12-18T06:16:02;0.28;;;0.20;;
70138;SDS011;57507;43.056;0.150;2022-12-18T06:18:28;0.20;;;0.20;;
70138;SDS011;57507;43.056;0.150;2022-12-18T06:20:56;1.13;;;0.30;;
70138;SDS011;57507;43.056;0.150;2022-12-18T06:23:22;0.52;;;0.20;;
70138;SDS011;57507;43.056;0.150;2022-12-18T06:25:49;0.15;;;0.15;;
70138;SDS011;57507;43.056;0.150;2022-12-18T06:28:16;0.32;;;0.20;;
70138;SDS011;57507;43.056;0.150;2022-12-18T06:30:46;0.30;;;0.30;;
70138;SDS011;57507;43.056;0.150;2022-12-18T06:33:14;0.25;;;0.25;;
70138;SDS011;57507;43.056;0.150;2022-12-18T06:35:40;0.20;;;0.20;;
70138;SDS011;57507;43.056;0.150;2022-12-18T06:38:08;0.52;;;0.40;;
70138;SDS011;57507;43.056;0.150;2022-12-18T06:40:35;0.95;;;0.22;;
70138;SDS011;57507;43.056;0.150;2022-12-18T06:43:03;0.20;;;0.20;;
70138;SDS011;57507;43.056;0.150;2022-12-18T06:45:29;0.20;;;0.20;;
70138;SDS011;57507;43.056;0.150;2022-12-18T06:47:56;1.08;;;0.20;;
70138;SDS011;57507;43.056;0.150;2022-12-18T06:50:23;0.57;;;0.20;;
70138;SDS011;57507;43.056;0.150;2022-12-18T06:52:50;0.20;;;0.20;;
70138;SDS011;57507;43.056;0.150;2022-12-18T06:55:17;0.30;;;0.30;;
70138;SDS011;57507;43.056;0.150;2022-12-18T06:57:43;0.40;;;0.40;;
70138;SDS011;57507;43.056;0.150;2022-12-18T07:00:10;0.50;;;0.20;;
70138;SDS011;57507;43.056;0.150;2022-12-18T07:02:37;0.52;;;0.40;;
70138;SDS011;57507;43.056;0.150;2022-12-18T07:05:03;0.20;;;0.20;;
70138;SDS011;57507;43.056;0.150;2022-12-18T07:07:30;0.30;;;0.20;;
70138;SDS011;57507;43.056;0.150;2022-12-18T07:09:56;0.20;;;0.20;;
70138;SDS011;57507;43.056;0.150;2022-12-18T07:12:23;0.32;;;0.30;;
70138;SDS011;57507;43.056;0.150;2022-12-18T07:14:50;1.20;;;0.20;;
70138;SDS011;57507;43.056;0.150;2022-12-18T07:17:16;0.40;;;0.40;;
70138;SDS011;57507;43.056;0.150;2022-12-18T07:19:43;0.20;;;0.20;;
70138;SDS011;57507;43.056;0.150;2022-12-18T07:22:09;0.30;;;0.20;;
70138;SDS011;57507;43.056;0.150;2022-12-18T07:24:36;0.20;;;0.20;;
70138;SDS011;57507;43.056;0.150;2022-12-18T07:27:03;0.38;;;0.30;;
70138;SDS011;57507;43.056;0.150;2022-12-18T07:29:30;0.30;;;0.30;;
70138;SDS011;57507;43.056;0.150;2022-12-18T07:31:57;0.40;;;0.40;;
70138;SDS011;57507;43.056;0.150;2022-12-18T07:34:23;0.70;;;0.50;;
70138;SDS011;57507;43.056;0.150;2022-12-18T07:36:50;0.35;;;0.22;;
70138;SDS011;57507;43.056;0.150;2022-12-18T07:39:17;0.30;;;0.30;;
70138;SDS011;57507;43.056;0.150;2022-12-18T07:41:43;0.30;;;0.20;;
70138;SDS011;57507;43.056;0.150;2022-12-18T07:44:30;0.68;;;0.30;;
70138;SDS011;57507;43.056;0.150;2022-12-18T07:46:56;0.30;;;0.30;;
70138;SDS011;57507;43.056;0.150;2022-12-18T07:49:23;0.40;;;0.40;;
70138;SDS011;57507;43.056;0.150;2022-12-18T07:51:53;0.50;;;0.40;;
70138;SDS011;57507;43.056;0.150;2022-12-18T07:54:20;0.50;;;0.40;;
70138;SDS011;57507;43.056;0.150;2022-12-18T07:56:47;0.50;;;0.50;;
70138;SDS011;57507;43.056;0.150;2022-12-18T07:59:13;0.38;;;0.30;;
70138;SDS011;57507;43.056;0.150;2022-12-18T08:01:40;0.63;;;0.30;;
70138;SDS011;57507;43.056;0.150;2022-12-18T08:04:06;0.80;;;0.35;;
70138;SDS011;57507;43.056;0.150;2022-12-18T08:06:33;0.57;;;0.50;;
70138;SDS011;57507;43.056;0.150;2022-12-18T08:09:00;1.55;;;0.38;;
70138;SDS011;57507;43.056;0.150;2022-12-18T08:11:27;1.15;;;0.50;;
70138;SDS011;57507;43.056;0.150;2022-12-18T08:13:55;0.70;;;0.50;;
70138;SDS011;57507;43.056;0.150;2022-12-18T08:16:22;0.50;;;0.50;;
70138;SDS011;57507;43.056;0.150;2022-12-18T08:18:48;0.60;;;0.60;;
70138;SDS011;57507;43.056;0.150;2022-12-18T08:21:16;0.82;;;0.50;;
70138;SDS011;57507;43.056;0.150;2022-12-18T08:23:43;0.80;;;0.55;;
70138;SDS011;57507;43.056;0.150;2022-12-18T08:26:10;0.50;;;0.47;;
70138;SDS011;57507;43.056;0.150;2022-12-18T08:28:37;0.40;;;0.40;;
70138;SDS011;57507;43.056;0.150;2022-12-18T08:31:04;0.50;;;0.50;;
70138;SDS011;57507;43.056;0.150;2022-12-18T08:33:30;0.50;;;0.50;;
70138;SDS011;57507;43.056;0.150;2022-12-18T08:36:01;0.55;;;0.50;;
70138;SDS011;57507;43.056;0.150;2022-12-18T08:38:27;0.63;;;0.40;;
70138;SDS011;57507;43.056;0.150;2022-12-18T08:40:58;0.80;;;0.60;;
70138;SDS011;57507;43.056;0.150;2022-12-18T08:43:25;0.52;;;0.50;;
70138;SDS011;57507;43.056;0.150;2022-12-18T08:46:10;0.70;;;0.70;;
70138;SDS011;57507;43.056;0.150;2022-12-18T08:48:38;0.60;;;0.55;;
70138;SDS011;57507;43.056;0.150;2022-12-18T08:51:05;0.75;;;0.60;;
70138;SDS011;57507;43.056;0.150;2022-12-18T08:53:32;0.60;;;0.60;;
70138;SDS011;57507;43.056;0.150;2022-12-18T08:55:58;0.77;;;0.75;;
70138;SDS011;57507;43.056;0.150;2022-12-18T08:58:25;0.95;;;0.80;;
70138;SDS011;57507;43.056;0.150;2022-12-18T09:00:52;0.73;;;0.73;;
70138;SDS011;57507;43.056;0.150;2022-12-18T09:03:19;0.77;;;0.70;;
70138;SDS011;57507;43.056;0.150;2022-12-18T09:05:47;1.17;;;0.70;;
70138;SDS011;57507;43.056;0.150;2022-12-18T09:08:14;0.90;;;0.52;;
70138;SDS011;57507;43.056;0.150;2022-12-18T09:10:42;0.65;;;0.50;;
70138;SDS011;57507;43.056;0.150;2022-12-18T09:13:09;0.75;;;0.70;;
70138;SDS011;57507;43.056;0.150;2022-12-18T09:15:42;0.85;;;0.60;;
70138;SDS011;57507;43.056;0.150;2022-12-18T09:18:09;1.55;;;0.80;;
70138;SDS011;57507;43.056;0.150;2022-12-18T09:20:36;0.73;;;0.73;;
70138;SDS011;57507;43.056;0.150;2022-12-18T09:23:03;0.70;;;0.70;;
70138;SDS011;57507;43.056;0.150;2022-12-18T09:25:30;0.68;;;0.68;;
70138;SDS011;57507;43.056;0.150;2022-12-18T09:27:58;0.60;;;0.40;;
70138;SDS011;57507;43.056;0.150;2022-12-18T09:30:26;0.45;;;0.40;;
70138;SDS011;57507;43.056;0.150;2022-12-18T09:32:52;0.43;;;0.38;;
70138;SDS011;57507;43.056;0.150;2022-12-18T09:35:19;2.42;;;0.70;;
70138;SDS011;57507;43.056;0.150;2022-12-18T09:37:46;0.77;;;0.60;;
70138;SDS011;57507;43.056;0.150;2022-12-18T09:40:16;0.40;;;0.40;;
70138;SDS011;57507;43.056;0.150;2022-12-18T09:42:45;0.50;;;0.47;;
70138;SDS011;57507;43.056;0.150;2022-12-18T09:45:13;0.90;;;0.70;;
70138;SDS011;57507;43.056;0.150;2022-12-18T09:47:40;0.90;;;0.60;;
70138;SDS011;57507;43.056;0.150;2022-12-18T09:50:23;0.57;;;0.50;;
70138;SDS011;57507;43.056;0.150;2022-12-18T09:52:52;0.60;;;0.50;;
70138;SDS011;57507;43.056;0.150;2022-12-18T09:57:55;0.85;;;0.60;;
70138;SDS011;57507;43.056;0.150;2022-12-18T10:00:24;1.42;;;0.77;;
70138;SDS011;57507;43.056;0.150;2022-12-18T10:02:51;2.58;;;0.80;;
70138;SDS011;57507;43.056;0.150;2022-12-18T10:08:12;5.03;;;0.98;;
70138;SDS011;57507;43.056;0.150;2022-12-18T10:10:47;2.63;;;1.83;;
70138;SDS011;57507;43.056;0.150;2022-12-18T10:13:49;2.35;;;0.90;;
70138;SDS011;57507;43.056;0.150;2022-12-18T10:18:56;0.88;;;0.75;;
70138;SDS011;57507;43.056;0.150;2022-12-18T10:26:31;1.15;;;0.65;;
70138;SDS011;57507;43.056;0.150;2022-12-18T10:28:58;1.20;;;0.80;;
70138;SDS011;57507;43.056;0.150;2022-12-18T10:31:25;1.40;;;0.70;;
70138;SDS011;57507;43.056;0.150;2022-12-18T10:33:55;2.42;;;1.10;;
70138;SDS011;57507;43.056;0.150;2022-12-18T10:36:23;1.27;;;0.70;;
70138;SDS011;57507;43.056;0.150;2022-12-18T10:38:49;0.90;;;0.57;;
70138;SDS011;57507;43.056;0.150;2022-12-18T10:43:47;0.50;;;0.50;;
70138;SDS011;57507;43.056;0.150;2022-12-18T10:46:15;0.73;;;0.57;;
70138;SDS011;57507;43.056;0.150;2022-12-18T10:48:55;0.60;;;0.60;;
70138;SDS011;57507;43.056;0.150;2022-12-18T10:53:53;0.73;;;0.60;;
70138;SDS011;57507;43.056;0.150;2022-12-18T10:56:20;0.70;;;0.60;;
70138;SDS011;57507;43.056;0.150;2022-12-18T10:59:00;1.20;;;0.40;;
70138;SDS011;57507;43.056;0.150;2022-12-18T11:01:28;1.20;;;0.55;;
70138;SDS011;57507;43.056;0.150;2022-12-18T11:06:24;1.83;;;1.00;;
70138;SDS011;57507;43.056;0.150;2022-12-18T11:09:01;1.90;;;0.80;;
70138;SDS011;57507;43.056;0.150;2022-12-18T11:11:27;1.00;;;0.65;;
70138;SDS011;57507;43.056;0.150;2022-12-18T11:16:21;1.98;;;0.80;;
70138;SDS011;57507;43.056;0.150;2022-12-18T11:18:48;1.98;;;0.80;;
70138;SDS011;57507;43.056;0.150;2022-12-18T11:21:15;0.85;;;0.60;;
70138;SDS011;57507;43.056;0.150;2022-12-18T11:23:46;1.50;;;0.70;;
70138;SDS011;57507;43.056;0.150;2022-12-18T11:26:14;2.20;;;1.00;;
70138;SDS011;57507;43.056;0.150;2022-12-18T11:28:47;1.00;;;0.70;;
70138;SDS011;57507;43.056;0.150;2022-12-18T11:33:44;1.13;;;0.65;;
70138;SDS011;57507;43.056;0.150;2022-12-18T11:36:11;0.98;;;0.80;;
70138;SDS011;57507;43.056;0.150;2022-12-18T11:38:39;2.33;;;0.90;;
70138;SDS011;57507;43.056;0.150;2022-12-18T11:44:11;1.88;;;1.30;;
70138;SDS011;57507;43.056;0.150;2022-12-18T11:46:50;1.15;;;1.00;;
70138;SDS011;57507;43.056;0.150;2022-12-18T11:49:35;1.80;;;0.73;;
70138;SDS011;57507;43.056;0.150;2022-12-18T11:52:21;1.30;;;0.73;;
70138;SDS011;57507;43.056;0.150;2022-12-18T11:54:52;1.25;;;0.77;;
70138;SDS011;57507;43.056;0.150;2022-12-18T12:00:09;2.65;;;1.00;;
70138;SDS011;57507;43.056;0.150;2022-12-18T12:03:00;1.20;;;0.80;;
70138;SDS011;57507;43.056;0.150;2022-12-18T12:08:08;1.00;;;0.70;;
70138;SDS011;57507;43.056;0.150;2022-12-18T12:13:10;1.55;;;0.80;;
70138;SDS011;57507;43.056;0.150;2022-12-18T12:20:47;1.10;;;0.70;;
70138;SDS011;57507;43.056;0.150;2022-12-18T12:26:00;0.63;;;0.60;;
70138;SDS011;57507;43.056;0.150;2022-12-18T12:34:03;0.95;;;0.63;;
70138;SDS011;57507;43.056;0.150;2022-12-18T12:39:13;0.65;;;0.60;;
70138;SDS011;57507;43.056;0.150;2022-12-18T12:41:40;0.90;;;0.80;;
70138;SDS011;57507;43.056;0.150;2022-12-18T12:44:47;1.15;;;0.68;;
70138;SDS011;57507;43.056;0.150;2022-12-18T12:47:14;0.60;;;0.55;;
70138;SDS011;57507;43.056;0.150;2022-12-18T12:49:41;1.02;;;0.75;;
70138;SDS011;57507;43.056;0.150;2022-12-18T12:52:24;0.60;;;0.50;;
70138;SDS011;57507;43.056;0.150;2022-12-18T12:54:54;1.25;;;0.70;;
70138;SDS011;57507;43.056;0.150;2022-12-18T12:57:33;0.75;;;0.68;;
70138;SDS011;57507;43.056;0.150;2022-12-18T13:00:05;0.93;;;0.60;;
70138;SDS011;57507;43.056;0.150;2022-12-18T13:08:28;0.70;;;0.50;;
70138;SDS011;57507;43.056;0.150;2022-12-18T13:10:24;1.33;;;0.60;;
70138;SDS011;57507;43.056;0.150;2022-12-18T13:12:52;1.10;;;0.55;;
70138;SDS011;57507;43.056;0.150;2022-12-18T13:15:24;1.05;;;0.60;;
70138;SDS011;57507;43.056;0.150;2022-12-18T13:20:50;0.70;;;0.60;;
70138;SDS011;57507;43.056;0.150;2022-12-18T13:25:49;0.77;;;0.60;;
70138;SDS011;57507;43.056;0.150;2022-12-18T13:28:16;0.80;;;0.60;;
70138;SDS011;57507;43.056;0.150;2022-12-18T13:30:51;0.70;;;0.45;;
70138;SDS011;57507;43.056;0.150;2022-12-18T13:38:32;0.82;;;0.50;;
70138;SDS011;57507;43.056;0.150;2022-12-18T13:48:53;2.20;;;0.68;;
70138;SDS011;57507;43.056;0.150;2022-12-18T13:51:21;0.57;;;0.40;;
70138;SDS011;57507;43.056;0.150;2022-12-18T13:53:52;0.65;;;0.40;;
70138;SDS011;57507;43.056;0.150;2022-12-18T13:56:26;0.50;;;0.40;;
70138;SDS011;57507;43.056;0.150;2022-12-18T13:59:54;0.98;;;0.60;;
70138;SDS011;57507;43.056;0.150;2022-12-18T14:01:54;0.95;;;0.50;;
70138;SDS011;57507;43.056;0.150;2022-12-18T14:04:23;0.70;;;0.30;;
70138;SDS011;57507;43.056;0.150;2022-12-18T14:06:52;0.70;;;0.50;;
70138;SDS011;57507;43.056;0.150;2022-12-18T14:09:21;0.90;;;0.50;;
70138;SDS011;57507;43.056;0.150;2022-12-18T14:11:49;0.60;;;0.40;;
70138;SDS011;57507;43.056;0.150;2022-12-18T14:14:17;0.57;;;0.43;;
70138;SDS011;57507;43.056;0.150;2022-12-18T14:16:44;0.43;;;0.40;;
70138;SDS011;57507;43.056;0.150;2022-12-18T14:19:14;0.43;;;0.40;;
70138;SDS011;57507;43.056;0.150;2022-12-18T14:21:45;0.50;;;0.40;;
70138;SDS011;57507;43.056;0.150;2022-12-18T14:24:16;0.70;;;0.40;;
70138;SDS011;57507;43.056;0.150;2022-12-18T14:26:43;0.80;;;0.50;;
70138;SDS011;57507;43.056;0.150;2022-12-18T14:29:25;0.60;;;0.50;;
70138;SDS011;57507;43.056;0.150;2022-12-18T14:32:12;0.50;;;0.40;;
70138;SDS011;57507;43.056;0.150;2022-12-18T14:34:42;0.20;;;0.20;;
70138;SDS011;57507;43.056;0.150;2022-12-18T14:37:12;0.40;;;0.40;;
70138;SDS011;57507;43.056;0.150;2022-12-18T14:39:51;0.57;;;0.40;;
70138;SDS011;57507;43.056;0.150;2022-12-18T14:42:17;0.52;;;0.35;;
70138;SDS011;57507;43.056;0.150;2022-12-18T14:44:44;0.63;;;0.40;;
70138;SDS011;57507;43.056;0.150;2022-12-18T14:47:15;0.22;;;0.22;;
70138;SDS011;57507;43.056;0.150;2022-12-18T14:49:42;0.60;;;0.40;;
70138;SDS011;57507;43.056;0.150;2022-12-18T14:52:18;0.38;;;0.38;;
70138;SDS011;57507;43.056;0.150;2022-12-18T14:54:47;0.52;;;0.22;;
70138;SDS011;57507;43.056;0.150;2022-12-18T14:57:24;0.35;;;0.30;;
70138;SDS011;57507;43.056;0.150;2022-12-18T14:59:51;1.02;;;0.40;;
70138;SDS011;57507;43.056;0.150;2022-12-18T15:04:45;0.25;;;0.25;;
70138;SDS011;57507;43.056;0.150;2022-12-18T15:07:22;0.77;;;0.57;;
70138;SDS011;57507;43.056;0.150;2022-12-18T15:12:35;0.50;;;0.50;;
70138;SDS011;57507;43.056;0.150;2022-12-18T15:15:02;1.17;;;0.60;;
70138;SDS011;57507;43.056;0.150;2022-12-18T15:17:28;0.90;;;0.70;;
70138;SDS011;57507;43.056;0.150;2022-12-18T15:19:59;1.13;;;0.63;;
70138;SDS011;57507;43.056;0.150;2022-12-18T15:22:27;1.02;;;0.70;;
70138;SDS011;57507;43.056;0.150;2022-12-18T15:24:54;1.25;;;0.70;;
70138;SDS011;57507;43.056;0.150;2022-12-18T15:27:23;1.38;;;0.70;;
70138;SDS011;57507;43.056;0.150;2022-12-18T15:32:35;0.93;;;0.60;;
70138;SDS011;57507;43.056;0.150;2022-12-18T15:37:38;1.23;;;0.40;;
70138;SDS011;57507;43.056;0.150;2022-12-18T15:40:05;0.80;;;0.47;;
70138;SDS011;57507;43.056;0.150;2022-12-18T15:42:31;0.68;;;0.40;;
70138;SDS011;57507;43.056;0.150;2022-12-18T15:45:16;1.63;;;0.50;;
70138;SDS011;57507;43.056;0.150;2022-12-18T15:47:43;0.50;;;0.40;;
70138;SDS011;57507;43.056;0.150;2022-12-18T15:50:10;0.98;;;0.30;;
70138;SDS011;57507;43.056;0.150;2022-12-18T15:52:40;0.57;;;0.50;;
70138;SDS011;57507;43.056;0.150;2022-12-18T15:55:17;0.73;;;0.40;;
70138;SDS011;57507;43.056;0.150;2022-12-18T15:58:03;0.80;;;0.43;;
70138;SDS011;57507;43.056;0.150;2022-12-18T16:00:30;0.85;;;0.32;;
70138;SDS011;57507;43.056;0.150;2022-12-18T16:02:57;0.63;;;0.43;;
70138;SDS011;57507;43.056;0.150;2022-12-18T16:05:24;0.40;;;0.40;;
70138;SDS011;57507;43.056;0.150;2022-12-18T16:07:51;0.60;;;0.50;;
70138;SDS011;57507;43.056;0.150;2022-12-18T16:10:18;0.85;;;0.45;;
70138;SDS011;57507;43.056;0.150;2022-12-18T16:12:45;0.93;;;0.60;;
70138;SDS011;57507;43.056;0.150;2022-12-18T16:15:13;2.03;;;0.65;;
70138;SDS011;57507;43.056;0.150;2022-12-18T16:17:41;1.17;;;0.70;;
70138;SDS011;57507;43.056;0.150;2022-12-18T16:20:18;0.60;;;0.60;;
70138;SDS011;57507;43.056;0.150;2022-12-18T16:22:46;1.25;;;0.70;;
70138;SDS011;57507;43.056;0.150;2022-12-18T16:25:18;1.20;;;0.60;;
70138;SDS011;57507;43.056;0.150;2022-12-18T16:27:44;0.90;;;0.60;;
70138;SDS011;57507;43.056;0.150;2022-12-18T16:30:12;0.98;;;0.70;;
70138;SDS011;57507;43.056;0.150;2022-12-18T16:32:39;1.05;;;0.70;;
70138;SDS011;57507;43.056;0.150;2022-12-18T16:35:05;0.73;;;0.50;;
70138;SDS011;57507;43.056;0.150;2022-12-18T16:37:32;1.25;;;0.60;;
70138;SDS011;57507;43.056;0.150;2022-12-18T16:39:58;3.13;;;0.60;;
70138;SDS011;57507;43.056;0.150;2022-12-18T16:42:25;1.67;;;0.73;;
70138;SDS011;57507;43.056;0.150;2022-12-18T16:44:52;0.77;;;0.50;;
70138;SDS011;57507;43.056;0.150;2022-12-18T16:47:18;1.27;;;0.82;;
70138;SDS011;57507;43.056;0.150;2022-12-18T16:49:45;1.40;;;1.10;;
70138;SDS011;57507;43.056;0.150;2022-12-18T16:52:13;1.25;;;0.65;;
70138;SDS011;57507;43.056;0.150;2022-12-18T16:54:40;0.98;;;0.70;;
70138;SDS011;57507;43.056;0.150;2022-12-18T16:57:08;1.65;;;0.80;;
70138;SDS011;57507;43.056;0.150;2022-12-18T16:59:35;1.15;;;0.82;;